Time;durP1;ratioP1;P1;durP2;ratioP2;P2;SDS_P1;SDS_P2;PMS_P1;PMS_P2;Temp;Humidity;BMP_temperature;BMP_pressure;BME280_temperature;BME280_humidity;BME280_pressure;Samples;Min_cycle;Max_cycle;Signal;HPM_P1;HPM_P2
2021/06/01 00:00:29;;;;;;;5.25;2.33;;;;;;;20.27;33.36;100953.34;5093382;27;20077;-69
2021/06/01 00:02:57;;;;;;;5.30;2.15;;;;;;;20.33;33.18;100949.03;5081238;27;20499;-68
2021/06/01 00:05:25;;;;;;;6.70;2.50;;;;;;;20.43;33.23;100945.63;5104147;28;20043;-70
2021/06/01 00:07:55;;;;;;;8.75;2.42;;;;;;;20.60;33.95;100941.50;5106891;27;20048;-72
2021/06/01 00:10:23;;;;;;;5.10;2.33;;;;;;;20.52;32.65;100934.97;5086121;28;20403;-73
2021/06/01 00:12:50;;;;;;;8.38;3.08;;;;;;;20.45;32.83;100936.88;5107628;28;20055;-73
2021/06/01 00:15:17;;;;;;;7.32;2.65;;;;;;;20.36;33.32;100928.72;5093429;28;20048;-71
2021/06/01 00:17:52;;;;;;;4.93;2.40;;;;;;;20.43;33.16;100945.63;5094792;28;20047;-70
2021/06/01 00:20:20;;;;;;;4.18;2.20;;;;;;;20.23;33.39;100946.88;5089423;28;20063;-69
2021/06/01 00:22:48;;;;;;;9.90;2.72;;;;;;;19.85;34.50;100941.34;5105358;28;20127;-74
2021/06/01 00:25:16;;;;;;;4.72;2.38;;;;;;;19.86;34.00;100938.16;5106516;28;20055;-70
2021/06/01 00:27:43;;;;;;;4.15;2.17;;;;;;;20.03;35.74;100950.88;5110309;28;20048;-73
2021/06/01 00:30:11;;;;;;;11.45;2.70;;;;;;;20.19;34.72;100937.59;5111030;28;20059;-72
2021/06/01 00:32:38;;;;;;;6.50;2.92;;;;;;;20.48;33.67;100936.09;5090732;28;20039;-72
2021/06/01 00:35:06;;;;;;;5.15;2.72;;;;;;;20.39;34.53;100927.16;5092221;28;20051;-72
2021/06/01 00:37:34;;;;;;;7.05;2.80;;;;;;;20.57;34.07;100925.47;5109739;27;20036;-74
2021/06/01 00:40:01;;;;;;;6.00;2.55;;;;;;;20.59;34.77;100926.69;5084450;28;20048;-74
2021/06/01 00:42:30;;;;;;;4.63;2.40;;;;;;;20.66;33.25;100931.63;5095697;28;20066;-74
2021/06/01 00:44:58;;;;;;;4.97;2.20;;;;;;;20.48;34.39;100931.31;5113203;28;20044;-71
2021/06/01 00:47:25;;;;;;;5.15;2.55;;;;;;;20.42;34.30;100932.81;5094179;28;20048;-72
2021/06/01 00:49:53;;;;;;;6.13;2.47;;;;;;;20.34;35.51;100924.66;5095455;28;20047;-73
2021/06/01 00:52:20;;;;;;;7.75;2.63;;;;;;;20.31;34.46;100928.22;5112457;28;20055;-75
2021/06/01 00:54:48;;;;;;;6.95;2.22;;;;;;;20.20;35.12;100918.84;5111803;28;20485;-72
2021/06/01 00:57:15;;;;;;;7.20;2.30;;;;;;;20.22;35.13;100927.66;5114801;28;20067;-71
2021/06/01 00:59:43;;;;;;;7.45;2.50;;;;;;;20.41;35.24;100935.97;5072823;28;20052;-76
2021/06/01 01:02:10;;;;;;;6.03;2.28;;;;;;;20.36;35.35;100923.13;5090883;28;20055;-75
2021/06/01 01:04:37;;;;;;;5.80;2.03;;;;;;;20.32;35.03;100927.84;5090675;28;20048;-74
2021/06/01 01:07:15;;;;;;;7.32;2.65;;;;;;;20.39;34.64;100925.16;5090597;28;20149;-74
2021/06/01 01:09:44;;;;;;;4.65;2.38;;;;;;;20.33;34.08;100923.06;5073029;28;20476;-73
2021/06/01 01:12:22;;;;;;;3.60;2.15;;;;;;;20.37;34.04;100921.13;5071978;28;20055;-75
2021/06/01 01:14:55;;;;;;;4.95;2.53;;;;;;;20.15;34.21;100931.91;5106500;28;20047;-76
2021/06/01 01:17:24;;;;;;;5.53;2.40;;;;;;;20.26;33.39;100923.72;5055636;28;20044;-74
2021/06/01 01:20:07;;;;;;;7.18;2.33;;;;;;;19.95;34.04;100919.16;5105347;28;20268;-73
2021/06/01 01:22:36;;;;;;;7.18;1.95;;;;;;;19.85;34.88;100918.97;5072139;28;20403;-74
2021/06/01 01:25:13;;;;;;;6.78;2.60;;;;;;;19.64;34.26;100918.56;5072575;28;20040;-74
2021/06/01 01:28:02;;;;;;;6.00;2.33;;;;;;;19.89;34.00;100915.03;5072548;28;20059;-72
2021/06/01 01:30:56;;;;;;;9.32;2.58;;;;;;;19.87;34.09;100908.22;5090987;28;20059;-73
2021/06/01 01:33:31;;;;;;;7.05;2.20;;;;;;;19.62;34.53;100904.94;5091713;28;20056;-74
2021/06/01 01:36:02;;;;;;;6.78;2.45;;;;;;;19.34;34.80;100906.34;5096886;28;20066;-75
2021/06/01 01:38:30;;;;;;;4.75;2.22;;;;;;;19.39;34.80;100906.06;5079672;28;20074;-75
2021/06/01 01:41:00;;;;;;;7.93;2.03;;;;;;;19.03;35.63;100899.72;5130570;27;20063;-75
2021/06/01 01:43:31;;;;;;;;;;;;;;;19.19;35.67;100899.66;5096836;28;20407;-72
2021/06/01 01:46:08;;;;;;;5.85;2.08;;;;;;;19.29;34.96;100896.25;5129873;27;19920;-72
2021/06/01 01:51:24;;;;;;;7.57;2.35;;;;;;;19.26;34.83;100897.00;5119910;27;20044;-72
2021/06/01 01:53:54;;;;;;;5.13;2.20;;;;;;;19.26;35.24;100894.22;5099757;27;20050;-72
2021/06/01 01:56:23;;;;;;;4.82;2.35;;;;;;;19.07;35.07;100888.63;5135077;27;20051;-72
2021/06/01 01:58:51;;;;;;;7.15;2.20;;;;;;;19.05;35.40;100890.97;5099120;27;20237;-72
2021/06/01 02:01:20;;;;;;;5.78;2.22;;;;;;;19.07;35.74;100894.22;5116890;27;20058;-72
2021/06/01 02:03:48;;;;;;;3.83;2.15;;;;;;;18.92;35.65;100884.69;5115554;27;20058;-72
2021/06/01 02:06:15;;;;;;;7.15;2.13;;;;;;;18.99;35.64;100882.06;5133845;27;20517;-72
2021/06/01 02:08:43;;;;;;;4.63;2.00;;;;;;;19.03;35.21;100882.97;5134640;27;20047;-73
2021/06/01 02:11:11;;;;;;;7.55;2.28;;;;;;;19.01;35.95;100878.91;5116536;27;20402;-73
2021/06/01 02:13:47;;;;;;;9.52;2.60;;;;;;;19.16;36.48;100888.41;5115658;27;20060;-72
2021/06/01 02:16:14;;;;;;;11.90;2.30;;;;;;;19.17;35.24;100885.25;5134015;27;20059;-71
2021/06/01 02:18:43;;;;;;;6.63;2.30;;;;;;;19.17;35.55;100888.03;5115529;27;20521;-71
2021/06/01 02:24:29;;;;;;;4.88;2.30;;;;;;;19.12;35.76;100891.13;5090983;28;20056;-71
2021/06/01 02:27:07;;;;;;;6.43;2.60;;;;;;;19.14;35.46;100882.38;5091090;28;20123;-73
2021/06/01 02:29:40;;;;;;;6.07;2.40;;;;;;;19.08;35.50;100885.47;5074003;28;20052;-72
2021/06/01 02:32:08;;;;;;;6.30;2.20;;;;;;;18.92;35.56;100887.50;5073979;28;20056;-72
2021/06/01 02:34:39;;;;;;;4.55;2.33;;;;;;;19.03;36.05;100882.16;5073630;28;20059;-73
2021/06/01 02:37:07;;;;;;;6.18;2.30;;;;;;;18.90;36.89;100884.25;5073978;28;20158;-72
2021/06/01 02:39:36;;;;;;;5.45;1.98;;;;;;;19.09;37.37;100886.25;5073911;28;20048;-72
2021/06/01 02:42:05;;;;;;;7.20;2.22;;;;;;;19.34;36.27;100878.41;5074317;28;20499;-73
2021/06/01 02:44:34;;;;;;;5.50;2.30;;;;;;;19.44;37.32;100886.22;5072644;28;20522;-75
2021/06/01 02:47:04;;;;;;;5.23;2.07;;;;;;;19.45;37.17;100883.06;5090985;28;20067;-72
2021/06/01 02:49:34;;;;;;;4.25;1.90;;;;;;;19.37;35.64;100878.50;5057286;28;20043;-72
2021/06/01 02:52:01;;;;;;;5.07;2.15;;;;;;;19.22;36.83;100870.16;5089652;28;20059;-72
2021/06/01 02:54:29;;;;;;;7.40;2.55;;;;;;;19.18;37.54;100870.09;5089454;28;20048;-73
2021/06/01 02:56:56;;;;;;;4.38;2.10;;;;;;;19.24;37.90;100879.00;5089576;28;20098;-73
2021/06/01 02:59:25;;;;;;;5.35;2.20;;;;;;;19.29;36.34;100871.13;5073906;28;20419;-73
2021/06/01 03:01:52;;;;;;;4.95;2.28;;;;;;;19.17;35.93;100867.66;5099131;27;20391;-72
2021/06/01 03:04:20;;;;;;;4.30;2.42;;;;;;;19.05;36.15;100860.25;5115744;27;20054;-73
2021/06/01 03:06:47;;;;;;;4.28;2.20;;;;;;;19.02;36.15;100864.56;5132811;27;20486;-73
2021/06/01 03:09:15;;;;;;;5.35;2.50;;;;;;;19.01;36.02;100862.97;5132772;27;20058;-76
2021/06/01 03:11:45;;;;;;;4.60;2.20;;;;;;;19.02;36.60;100859.00;5114423;27;20055;-74
2021/06/01 03:14:13;;;;;;;7.15;2.40;;;;;;;18.92;36.94;100856.78;5133459;27;20394;-73
2021/06/01 03:16:41;;;;;;;6.32;2.38;;;;;;;18.76;37.16;100863.59;5133526;27;20070;-73
2021/06/01 03:19:08;;;;;;;6.18;2.25;;;;;;;19.03;36.46;100857.03;5133500;27;20057;-74
2021/06/01 03:21:36;;;;;;;6.90;2.28;;;;;;;19.01;36.50;100860.19;5132534;27;20047;-74
2021/06/01 03:24:04;;;;;;;6.28;2.90;;;;;;;18.89;37.58;100851.94;5132498;27;20050;-71
2021/06/01 03:26:32;;;;;;;6.35;2.40;;;;;;;18.78;37.04;100853.69;5097401;27;20080;-72
2021/06/01 03:28:59;;;;;;;7.07;2.40;;;;;;;18.80;38.30;100850.53;5114584;27;20043;-73
2021/06/01 03:31:31;;;;;;;8.90;2.60;;;;;;;18.69;37.18;100852.28;5114154;27;20047;-75
2021/06/01 03:33:58;;;;;;;7.72;2.75;;;;;;;18.66;37.26;100848.22;5133124;27;20054;-72
2021/06/01 03:36:26;;;;;;;5.15;2.50;;;;;;;18.69;37.58;100849.50;5097425;27;20062;-72
2021/06/01 03:38:53;;;;;;;8.77;3.17;;;;;;;18.15;38.26;100845.78;5113939;27;20050;-72
2021/06/01 03:41:21;;;;;;;9.80;3.55;;;;;;;18.32;39.45;100843.44;5114754;27;20394;-72
2021/06/01 03:43:48;;;;;;;7.72;3.30;;;;;;;18.46;38.67;100838.19;5114328;27;20051;-73
2021/06/01 03:46:15;;;;;;;8.23;2.80;;;;;;;18.66;39.30;100839.03;5115641;27;20047;-74
2021/06/01 03:48:43;;;;;;;7.72;2.72;;;;;;;18.46;38.15;100840.19;5133427;27;20059;-72
2021/06/01 03:51:10;;;;;;;8.32;2.58;;;;;;;18.19;38.57;100844.69;5132975;27;20058;-72
2021/06/01 03:53:37;;;;;;;7.10;2.63;;;;;;;18.32;38.48;100840.66;5098030;27;20533;-73
2021/06/01 03:56:05;;;;;;;6.45;2.80;;;;;;;18.37;38.28;100842.34;5114864;27;20054;-73
2021/06/01 03:58:32;;;;;;;5.95;2.83;;;;;;;18.46;38.68;100838.19;5098468;27;20047;-70
2021/06/01 04:01:00;;;;;;;5.55;2.55;;;;;;;18.34;38.25;100845.84;5132144;27;20070;-73
2021/06/01 04:03:28;;;;;;;8.35;3.05;;;;;;;18.40;38.36;100848.03;5113523;27;20400;-73
2021/06/01 04:05:55;;;;;;;5.28;2.88;;;;;;;18.08;38.87;100854.75;5113904;27;20047;-74
2021/06/01 04:08:23;;;;;;;5.75;2.67;;;;;;;17.96;39.14;100846.50;5113741;27;20055;-71
2021/06/01 04:10:50;;;;;;;5.53;2.38;;;;;;;18.13;39.10;100848.13;5131569;27;20486;-74
2021/06/01 04:13:18;;;;;;;8.40;2.83;;;;;;;17.96;39.46;100846.50;5132378;27;20055;-72
2021/06/01 04:15:45;;;;;;;7.28;3.00;;;;;;;18.02;39.21;100847.84;5132302;27;20051;-73
2021/06/01 04:18:12;;;;;;;5.70;2.63;;;;;;;18.21;39.86;100842.34;5132333;27;20035;-73
2021/06/01 04:20:40;;;;;;;7.38;2.90;;;;;;;18.20;39.34;100842.72;5113456;27;20055;-71
2021/06/01 04:23:07;;;;;;;6.65;2.40;;;;;;;18.13;39.51;100848.94;5131464;27;20058;-72
2021/06/01 04:25:35;;;;;;;7.72;2.88;;;;;;;18.24;39.38;100849.16;5131699;27;20043;-72
2021/06/01 04:28:03;;;;;;;5.80;2.63;;;;;;;18.10;39.52;100838.50;5132496;27;20050;-73
2021/06/01 04:30:31;;;;;;;6.80;2.83;;;;;;;18.24;39.65;100840.81;5114008;27;20513;-73
2021/06/01 04:32:59;;;;;;;6.30;2.45;;;;;;;18.22;39.53;100835.59;5096816;27;20065;-72
2021/06/01 04:35:26;;;;;;;6.15;2.38;;;;;;;18.03;39.92;100838.31;5114119;27;20043;-71
2021/06/01 04:37:54;;;;;;;7.43;2.92;;;;;;;18.11;40.97;100834.53;5113134;27;20410;-72
2021/06/01 04:40:21;;;;;;;5.82;2.80;;;;;;;18.30;39.73;100840.19;5113530;27;20482;-73
2021/06/01 04:42:48;;;;;;;9.57;3.30;;;;;;;18.17;39.87;100832.25;5096449;27;20062;-72
2021/06/01 04:45:16;;;;;;;8.50;2.80;;;;;;;18.01;40.04;100828.72;5131967;27;20043;-72
2021/06/01 04:47:44;;;;;;;8.20;3.08;;;;;;;18.15;40.45;100831.84;5113202;27;20137;-72
2021/06/01 04:50:12;;;;;;;15.30;2.95;;;;;;;18.07;41.12;100830.03;5113698;28;20047;-74
2021/06/01 04:52:40;;;;;;;5.55;2.63;;;;;;;18.12;40.59;100838.13;5113596;27;20047;-75
2021/06/01 04:55:10;;;;;;;5.30;2.53;;;;;;;18.06;40.46;100831.22;5096458;28;20047;-75
2021/06/01 04:57:39;;;;;;;5.75;2.80;;;;;;;18.09;40.37;100836.88;5095896;28;20051;-76
2021/06/01 05:00:08;;;;;;;6.72;2.70;;;;;;;18.12;40.29;100826.97;5131845;28;20514;-74
2021/06/01 05:02:36;;;;;;;8.40;3.05;;;;;;;17.95;41.56;100830.94;5131726;28;20486;-76
2021/06/01 05:05:07;;;;;;;5.65;2.70;;;;;;;17.87;40.94;100829.13;5112954;28;20047;-75
2021/06/01 05:07:35;;;;;;;7.65;3.08;;;;;;;17.70;41.41;100827.53;5097716;27;20085;-75
2021/06/01 05:10:04;;;;;;;6.35;3.10;;;;;;;17.77;41.24;100829.69;5117154;27;20051;-74
2021/06/01 05:12:32;;;;;;;9.35;2.90;;;;;;;17.85;41.18;100823.94;5116939;27;20051;-74
2021/06/01 05:15:00;;;;;;;6.97;3.03;;;;;;;17.82;41.97;100823.84;5134736;27;20057;-74
2021/06/01 05:17:27;;;;;;;11.98;3.15;;;;;;;18.05;41.82;100824.00;5117361;27;20039;-74
2021/06/01 05:19:55;;;;;;;10.32;3.22;;;;;;;17.66;41.19;100820.25;5117576;27;20058;-76
2021/06/01 05:22:22;;;;;;;10.02;5.30;;;;;;;17.83;41.40;100825.47;5101172;27;20043;-74
2021/06/01 05:24:50;;;;;;;8.20;4.45;;;;;;;17.94;41.19;100816.19;5117101;27;20046;-75
2021/06/01 05:27:17;;;;;;;9.07;3.20;;;;;;;17.59;41.54;100811.72;5116849;27;20052;-74
2021/06/01 05:29:49;;;;;;;13.55;3.85;;;;;;;17.70;41.75;100819.16;5099618;27;20062;-75
2021/06/01 05:35:01;;;;;;;9.63;3.05;;;;;;;17.87;41.37;100818.00;5118803;27;20117;-74
2021/06/01 05:37:36;;;;;;;8.80;2.85;;;;;;;17.91;41.13;100818.91;5116992;27;20047;-76
2021/06/01 05:40:07;;;;;;;9.40;3.15;;;;;;;17.74;41.46;100822.03;5083784;27;20058;-75
2021/06/01 05:42:35;;;;;;;7.68;4.20;;;;;;;17.61;42.09;100820.50;5134619;27;20043;-75
2021/06/01 05:45:03;;;;;;;8.40;3.17;;;;;;;17.72;41.84;100813.22;5134407;27;20058;-78
2021/06/01 05:47:32;;;;;;;8.00;2.95;;;;;;;17.58;41.93;100810.06;5135163;27;20051;-75
2021/06/01 05:49:59;;;;;;;12.23;3.22;;;;;;;17.50;42.51;100814.66;5116373;27;20062;-77
2021/06/01 05:52:27;;;;;;;8.50;3.30;;;;;;;17.59;42.12;100811.72;5135355;27;20046;-79
2021/06/01 05:54:54;;;;;;;7.55;2.75;;;;;;;17.73;42.62;100804.50;5135005;27;20502;-77
2021/06/01 05:57:21;;;;;;;9.45;3.33;;;;;;;17.76;41.98;100806.59;5134849;27;20058;-75
2021/06/01 05:59:49;;;;;;;5.35;3.00;;;;;;;17.82;42.13;100805.16;5135534;27;20043;-76
2021/06/01 06:02:16;;;;;;;8.40;3.72;;;;;;;17.84;41.80;100804.78;5134685;27;20047;-73
2021/06/01 06:04:44;;;;;;;8.02;3.13;;;;;;;18.22;41.78;100802.13;5082578;27;20069;-77
2021/06/01 06:07:12;;;;;;;8.40;3.75;;;;;;;18.40;41.12;100792.25;5100317;27;20051;-76
2021/06/01 06:09:40;;;;;;;14.05;6.78;;;;;;;18.65;40.45;100804.78;5117244;27;20050;-74
2021/06/01 06:12:08;;;;;;;11.40;3.78;;;;;;;18.59;41.94;100803.44;5115762;27;20050;-74
2021/06/01 06:14:35;;;;;;;7.50;4.03;;;;;;;18.74;40.76;100805.34;5116256;27;20051;-72
2021/06/01 06:17:08;;;;;;;7.82;4.00;;;;;;;18.78;39.91;100809.03;5134755;27;20517;-73
2021/06/01 06:19:41;;;;;;;8.20;4.00;;;;;;;18.80;40.99;100805.88;5098421;27;20485;-74
2021/06/01 06:22:09;;;;;;;8.43;3.60;;;;;;;18.71;40.13;100794.94;5134008;27;20059;-76
2021/06/01 06:24:36;;;;;;;10.20;5.30;;;;;;;18.72;40.20;100804.13;5133829;27;20078;-74
2021/06/01 06:27:04;;;;;;;10.98;3.67;;;;;;;18.70;40.48;100807.28;5133451;27;20394;-75
2021/06/01 06:29:31;;;;;;;7.78;3.78;;;;;;;18.80;40.41;100801.09;5099436;27;20051;-74
2021/06/01 06:32:00;;;;;;;9.25;3.72;;;;;;;18.91;40.71;100793.78;5134448;27;20051;-74
2021/06/01 06:34:27;;;;;;;8.73;3.45;;;;;;;18.98;39.82;100795.91;5098945;27;20050;-74
2021/06/01 06:36:55;;;;;;;6.93;3.45;;;;;;;18.67;40.42;100791.25;5133325;27;20051;-75
2021/06/01 06:39:22;;;;;;;7.72;3.40;;;;;;;18.85;40.06;100786.84;5133677;27;20040;-74
2021/06/01 06:41:49;;;;;;;10.23;3.50;;;;;;;18.86;40.27;100787.66;5134126;27;20047;-74
2021/06/01 06:44:18;;;;;;;10.10;3.65;;;;;;;18.71;40.39;100794.94;5098011;27;20647;-75
2021/06/01 06:46:52;;;;;;;7.80;3.90;;;;;;;18.75;40.45;100789.41;5115487;27;20047;-74
2021/06/01 06:49:20;;;;;;;6.85;3.58;;;;;;;19.00;40.27;100794.34;5134552;27;20490;-75
2021/06/01 06:51:50;;;;;;;8.82;3.58;;;;;;;19.03;40.30;100790.00;5099080;27;20043;-76
2021/06/01 06:54:18;;;;;;;11.27;3.40;;;;;;;19.01;39.86;100795.97;5098795;27;20043;-73
2021/06/01 06:56:46;;;;;;;8.40;3.53;;;;;;;18.97;40.28;100797.06;5133716;27;20498;-72
2021/06/01 06:59:14;;;;;;;6.45;3.35;;;;;;;18.68;40.30;100792.88;5099025;27;20051;-76
2021/06/01 07:01:42;;;;;;;6.05;3.17;;;;;;;18.53;40.85;100790.13;5114876;27;20043;-76
2021/06/01 07:04:10;;;;;;;13.13;7.18;;;;;;;18.29;41.15;100791.16;5114729;27;20055;-73
2021/06/01 07:06:38;;;;;;;9.32;4.20;;;;;;;18.20;41.67;100789.75;5114499;27;20047;-77
2021/06/01 07:09:06;;;;;;;10.35;3.95;;;;;;;18.39;41.40;100787.81;5132631;27;20051;-72
2021/06/01 07:11:34;;;;;;;9.52;3.67;;;;;;;18.47;41.24;100784.03;5132852;27;20482;-74
2021/06/01 07:14:07;;;;;;;8.30;3.92;;;;;;;18.57;41.43;100788.22;5114476;27;20048;-74
2021/06/01 07:16:34;;;;;;;11.57;3.42;;;;;;;19.01;41.30;100782.00;5115086;27;20062;-74
2021/06/01 07:19:02;;;;;;;11.52;3.72;;;;;;;19.43;40.09;100776.47;5114497;27;20054;-72
2021/06/01 07:21:30;;;;;;;9.93;3.83;;;;;;;19.49;39.46;100777.75;5131204;27;20047;-72
2021/06/01 07:23:57;;;;;;;11.60;3.72;;;;;;;19.50;39.75;100776.59;5132771;27;20051;-73
2021/06/01 07:26:25;;;;;;;8.00;3.30;;;;;;;19.60;39.60;100775.97;5132768;27;20051;-74
2021/06/01 07:28:52;;;;;;;12.15;3.90;;;;;;;19.66;39.15;100770.88;5097951;27;20051;-73
2021/06/01 07:31:20;;;;;;;9.88;3.63;;;;;;;19.76;39.35;100761.84;5132191;27;20074;-74
2021/06/01 07:33:47;;;;;;;13.48;3.88;;;;;;;20.03;38.79;100758.72;5132326;27;20051;-71
2021/06/01 07:36:15;;;;;;;12.32;4.60;;;;;;;20.48;38.50;100746.63;5113841;27;20616;-74
2021/06/01 07:38:42;;;;;;;8.00;3.75;;;;;;;20.66;37.59;100753.25;5114414;27;20058;-71
2021/06/01 07:41:10;;;;;;;12.02;3.67;;;;;;;20.61;37.20;100758.38;5114510;27;20050;-73
2021/06/01 07:43:37;;;;;;;9.85;3.03;;;;;;;20.70;36.89;100754.09;5132221;27;20050;-73
2021/06/01 07:46:06;;;;;;;9.18;3.55;;;;;;;20.93;37.08;100746.41;5114569;27;20051;-71
2021/06/01 07:48:36;;;;;;;9.40;4.13;;;;;;;21.10;36.88;100745.00;5132951;27;20039;-73
2021/06/01 07:51:10;;;;;;;12.25;3.85;;;;;;;21.01;36.53;100753.72;5132754;27;20039;-73
2021/06/01 07:53:39;;;;;;;11.60;3.70;;;;;;;21.55;36.09;100753.06;5114489;27;20054;-73
2021/06/01 07:56:08;;;;;;;16.10;3.78;;;;;;;21.58;35.99;100757.94;5132605;27;20047;-73
2021/06/01 07:58:35;;;;;;;12.82;3.38;;;;;;;21.70;35.69;100751.22;5131448;27;20479;-74
2021/06/01 08:01:03;;;;;;;14.27;5.40;;;;;;;21.80;35.51;100744.91;5114053;27;20058;-72
2021/06/01 08:03:31;;;;;;;10.25;3.80;;;;;;;21.82;35.27;100739.72;5115477;27;20043;-73
2021/06/01 08:05:59;;;;;;;11.10;3.70;;;;;;;21.80;35.53;100740.13;5132365;27;20054;-73
2021/06/01 08:08:27;;;;;;;6.72;3.50;;;;;;;21.92;35.63;100730.59;5114518;27;20046;-73
2021/06/01 08:10:54;;;;;;;14.95;4.00;;;;;;;21.71;35.71;100719.97;5132415;27;20387;-75
2021/06/01 08:13:22;;;;;;;9.15;3.63;;;;;;;21.96;35.38;100720.22;5132471;27;20046;-74
2021/06/01 08:15:51;;;;;;;11.88;3.90;;;;;;;22.30;35.04;100713.19;5131764;27;20061;-74
2021/06/01 08:18:20;;;;;;;13.75;5.00;;;;;;;22.46;34.92;100716.50;5131331;27;20051;-73
2021/06/01 08:23:24;;;;;;;14.02;4.28;;;;;;;22.16;34.97;100713.94;5132464;27;20429;-74
2021/06/01 08:25:52;;;;;;;11.02;3.60;;;;;;;22.03;35.08;100711.84;5112894;27;20058;-73
2021/06/01 08:28:19;;;;;;;10.20;3.42;;;;;;;22.25;35.13;100703.16;5097027;27;20047;-73
2021/06/01 08:30:47;;;;;;;12.90;3.65;;;;;;;22.64;34.69;100702.56;5132084;27;20070;-71
2021/06/01 08:33:15;;;;;;;7.40;3.67;;;;;;;22.15;35.26;100703.09;5131600;27;20394;-73
2021/06/01 08:35:42;;;;;;;7.88;3.60;;;;;;;22.49;34.88;100704.47;5097443;28;20044;-73
2021/06/01 08:38:09;;;;;;;8.30;3.22;;;;;;;22.19;35.40;100698.31;5106610;28;20475;-72
2021/06/01 08:40:37;;;;;;;6.65;3.10;;;;;;;22.61;35.21;100694.94;5103089;28;20043;-73
2021/06/01 08:43:19;;;;;;;12.13;3.17;;;;;;;22.49;35.20;100703.69;5084232;28;20058;-72
2021/06/01 08:45:49;;;;;;;13.65;3.65;;;;;;;22.27;35.63;100697.16;5096266;28;20047;-73
2021/06/01 08:48:18;;;;;;;10.73;4.60;;;;;;;22.10;36.35;100689.44;5110811;28;20047;-76
2021/06/01 08:50:48;;;;;;;13.65;3.63;;;;;;;22.01;36.24;100692.59;5055171;28;20044;-74
2021/06/01 08:53:16;;;;;;;16.25;4.45;;;;;;;21.75;36.33;100691.97;5105744;28;20047;-75
2021/06/01 08:55:46;;;;;;;8.93;3.72;;;;;;;21.97;36.22;100699.38;5091632;28;20403;-76
2021/06/01 08:58:18;;;;;;;14.50;3.92;;;;;;;22.15;35.88;100698.28;5092140;28;20043;-73
2021/06/01 09:00:47;;;;;;;11.05;3.60;;;;;;;22.25;35.92;100694.75;5072817;28;20051;-78
2021/06/01 09:03:24;;;;;;;9.82;3.78;;;;;;;22.48;35.92;100691.66;5090919;28;20048;-75
2021/06/01 09:06:03;;;;;;;7.07;3.63;;;;;;;22.54;35.30;100692.06;5097301;28;20526;-77
2021/06/01 09:08:49;;;;;;;14.00;3.63;;;;;;;22.67;35.13;100677.31;5091508;28;20059;-73
2021/06/01 09:14:36;;;;;;;6.82;3.50;;;;;;;22.46;35.58;100682.81;5090362;28;20055;-73
2021/06/01 09:22:49;;;;;;;10.70;3.50;;;;;;;22.61;35.75;100675.28;5098804;28;20039;-74
2021/06/01 09:25:35;;;;;;;13.40;3.88;;;;;;;23.26;34.90;100682.28;5098898;28;20051;-75
2021/06/01 09:28:04;;;;;;;14.13;3.90;;;;;;;22.75;35.43;100675.34;5110676;28;20068;-72
2021/06/01 09:30:47;;;;;;;10.60;3.40;;;;;;;22.64;35.45;100677.31;5109328;28;20055;-72
2021/06/01 09:33:18;;;;;;;19.23;4.05;;;;;;;22.72;35.23;100673.31;5091856;28;20050;-74
2021/06/01 09:36:15;;;;;;;7.50;3.35;;;;;;;23.07;35.30;100662.97;5110132;28;20047;-72
2021/06/01 09:38:47;;;;;;;12.20;3.40;;;;;;;23.22;35.30;100650.53;5007218;28;20060;-71
2021/06/01 09:41:17;;;;;;;9.27;3.30;;;;;;;23.27;34.74;100657.78;5026528;28;20041;-69
2021/06/01 09:44:03;;;;;;;12.43;2.85;;;;;;;23.55;34.95;100655.00;5025314;28;20528;-71
2021/06/01 09:46:45;;;;;;;15.57;3.30;;;;;;;23.75;34.24;100652.56;5005941;28;20045;-68
2021/06/01 09:49:12;;;;;;;9.80;3.53;;;;;;;23.61;34.60;100647.75;5024442;28;20053;-73
2021/06/01 09:51:43;;;;;;;9.77;3.30;;;;;;;23.19;34.50;100650.53;5025659;28;20411;-73
2021/06/01 09:54:45;;;;;;;8.93;2.83;;;;;;;23.08;34.55;100655.34;5023660;28;20053;-69
2021/06/01 09:57:16;;;;;;;10.23;3.60;;;;;;;23.14;34.86;100653.75;5029759;28;20044;-70
2021/06/01 10:00:10;;;;;;;13.40;3.78;;;;;;;23.27;35.08;100654.97;5028599;28;20052;-74
2021/06/01 10:02:42;;;;;;;14.77;3.92;;;;;;;23.37;34.69;100669.06;5014021;28;20049;-70
2021/06/01 10:05:13;;;;;;;9.90;3.45;;;;;;;23.37;33.99;100660.63;5026773;28;20064;-72
2021/06/01 10:07:42;;;;;;;;;;;;;;;23.47;34.14;100659.00;4996049;28;20053;-73
2021/06/01 10:10:14;;;;;;;11.52;3.17;;;;;;;23.83;33.81;100659.81;5029693;28;19925;-71
2021/06/01 10:12:44;;;;;;;34.67;13.47;;;;;;;23.90;33.51;100654.94;5026229;28;20045;-76
2021/06/01 10:15:13;;;;;;;7.05;2.72;;;;;;;24.12;33.54;100645.28;5058174;28;20044;-75
2021/06/01 10:18:04;;;;;;;8.40;3.20;;;;;;;24.18;33.14;100637.25;5084822;28;20067;-76
2021/06/01 10:20:33;;;;;;;11.20;3.38;;;;;;;24.04;33.12;100631.66;5075092;28;20541;-71
2021/06/01 10:23:02;;;;;;;14.27;2.75;;;;;;;23.97;32.80;100631.63;5074097;28;20400;-73
2021/06/01 10:25:29;;;;;;;10.50;3.30;;;;;;;24.11;32.63;100628.81;5085937;28;20052;-70
2021/06/01 10:28:04;;;;;;;7.97;2.90;;;;;;;24.18;32.57;100620.34;5077757;28;20044;-68
2021/06/01 10:30:35;;;;;;;7.80;2.78;;;;;;;24.11;32.29;100626.00;5088944;28;20051;-70
2021/06/01 10:33:06;;;;;;;6.95;2.90;;;;;;;24.00;32.77;100634.47;5104908;28;20586;-72
2021/06/01 10:35:42;;;;;;;5.47;2.70;;;;;;;24.04;33.43;100618.38;5071215;28;20044;-73
2021/06/01 10:44:19;;;;;;;9.07;3.58;;;;;;;24.17;32.88;100611.09;5081495;28;20036;-72
2021/06/01 10:50:03;;;;;;;7.30;2.70;;;;;;;24.30;33.01;100597.38;5108361;28;20043;-74
2021/06/01 10:52:32;;;;;;;10.98;2.60;;;;;;;24.81;32.15;100600.31;5113562;28;20048;-72
2021/06/01 10:55:05;;;;;;;9.38;3.00;;;;;;;24.67;32.07;100596.78;5061877;28;20058;-73
2021/06/01 10:57:52;;;;;;;9.48;3.38;;;;;;;24.29;32.85;100604.19;5113045;27;20502;-72
2021/06/01 11:03:13;;;;;;;6.60;2.80;;;;;;;23.88;33.59;100603.13;5110367;28;20074;-71
2021/06/01 11:06:01;;;;;;;5.50;2.97;;;;;;;24.28;33.06;100596.97;5079680;28;20051;-72
2021/06/01 11:08:45;;;;;;;9.73;2.80;;;;;;;24.53;32.61;100594.81;5089008;28;20067;-71
2021/06/01 11:11:33;;;;;;;8.45;2.80;;;;;;;24.50;32.32;100598.47;5106840;28;20039;-71
2021/06/01 11:14:03;;;;;;;10.30;3.15;;;;;;;24.14;32.80;100597.84;5087719;28;20047;-71
2021/06/01 11:16:53;;;;;;;5.63;2.75;;;;;;;24.03;32.73;100599.06;5097875;28;20063;-71
2021/06/01 11:19:23;;;;;;;;;;;;;;;24.04;33.26;100593.03;5106570;28;20494;-72
2021/06/01 11:22:04;;;;;;;8.23;2.60;;;;;;;24.16;32.84;100584.16;5099869;28;20388;-72
2021/06/01 11:25:02;;;;;;;8.13;2.95;;;;;;;24.20;33.24;100587.75;5104724;28;20055;-71
2021/06/01 11:33:10;;;;;;;6.32;2.78;;;;;;;24.52;32.41;100573.53;5077918;28;20063;-72
2021/06/01 11:35:43;;;;;;;6.75;2.80;;;;;;;24.44;32.54;100561.47;5095908;28;20503;-69
2021/06/01 11:39:00;;;;;;;6.40;3.05;;;;;;;24.27;32.48;100573.66;5101756;28;20051;-72
2021/06/01 11:41:08;;;;;;;6.00;3.03;;;;;;;24.46;32.59;100556.25;5084850;28;20040;-70
2021/06/01 11:43:35;;;;;;;7.45;2.38;;;;;;;24.88;32.05;100562.88;5074496;28;20479;-69
2021/06/01 11:46:14;;;;;;;5.85;2.60;;;;;;;24.98;30.86;100551.50;5109029;28;20055;-69
2021/06/01 11:51:27;;;;;;;7.35;2.72;;;;;;;24.98;31.45;100551.50;5109498;28;20672;-71
2021/06/01 11:53:55;;;;;;;9.07;2.80;;;;;;;25.21;31.20;100553.72;5107372;28;20040;-73
2021/06/01 12:03:00;;;;;;;6.75;2.92;;;;;;;24.85;32.01;100556.03;5106433;28;20051;-71
2021/06/01 12:19:10;;;;;;;5.30;2.55;;;;;;;25.38;30.36;100544.34;5091387;28;20055;-71
2021/06/01 12:21:54;;;;;;;9.98;2.42;;;;;;;25.46;30.25;100537.41;5100568;28;20488;-69
2021/06/01 12:24:26;;;;;;;6.95;2.55;;;;;;;25.37;30.02;100545.53;5106358;28;20051;-67
2021/06/01 12:27:13;;;;;;;6.10;2.40;;;;;;;25.49;29.74;100540.19;5106579;28;20047;-65
2021/06/01 12:32:32;;;;;;;5.88;2.40;;;;;;;25.52;30.19;100544.19;5118625;27;20051;-68
2021/06/01 12:35:15;;;;;;;6.07;2.47;;;;;;;25.64;30.33;100540.03;5091418;28;20052;-72
2021/06/01 13:38:16;;;;;;;8.18;2.10;;;;;;;26.91;29.00;100500.41;4879572;29;20131;-69
2021/06/01 13:46:49;;;;;;;4.25;2.22;;;;;;;26.95;29.53;100483.38;4897700;29;20413;-70
2021/06/01 13:52:14;;;;;;;;;;;;;;;26.87;28.95;100494.00;4904014;29;20058;-72